createdAt,value
2022-08-28T00:02:25.455Z,14.42
2022-08-28T00:04:52.083Z,14.44
2022-08-28T00:07:19.399Z,14.44
2022-08-28T00:09:46.007Z,14.40
2022-08-28T00:12:12.505Z,14.33
2022-08-28T00:14:39.414Z,14.37
2022-08-28T00:17:06.046Z,14.37
2022-08-28T00:19:38.483Z,14.35
2022-08-28T00:22:05.834Z,14.26
2022-08-28T00:24:32.371Z,14.26
2022-08-28T00:27:18.545Z,14.19
2022-08-28T00:29:45.220Z,14.14
2022-08-28T00:32:11.780Z,14.14
2022-08-28T00:34:38.892Z,14.11
2022-08-28T00:37:05.725Z,14.11
2022-08-28T00:39:32.377Z,14.09
2022-08-28T00:41:59.120Z,14.09
2022-08-28T00:44:27.809Z,14.05
2022-08-28T00:46:57.425Z,14.01
2022-08-28T00:49:28.318Z,13.98
2022-08-28T00:52:08.069Z,13.93
2022-08-28T00:54:42.479Z,13.90
2022-08-28T00:57:33.945Z,13.86
2022-08-28T01:00:00.449Z,13.86
2022-08-28T01:02:27.700Z,13.81
2022-08-28T01:04:55.479Z,13.76
2022-08-28T01:07:23.460Z,13.73
2022-08-28T01:09:53.513Z,13.73
2022-08-28T01:12:26.334Z,13.74
2022-08-28T01:14:58.521Z,13.76
2022-08-28T01:17:28.661Z,13.69
2022-08-28T01:19:59.883Z,13.71
2022-08-28T01:22:51.062Z,13.76
2022-08-28T01:25:20.894Z,13.72
2022-08-28T01:27:47.628Z,13.69
2022-08-28T01:30:18.073Z,13.69
2022-08-28T01:32:49.214Z,13.67
2022-08-28T01:35:22.800Z,13.73
2022-08-28T01:37:49.613Z,13.69
2022-08-28T01:40:25.586Z,13.67
2022-08-28T01:42:52.190Z,13.65
2022-08-28T01:45:20.947Z,13.58
2022-08-28T01:47:48.546Z,13.56
2022-08-28T01:50:20.634Z,13.48
2022-08-28T01:52:47.227Z,13.50
2022-08-28T01:55:14.368Z,13.44
2022-08-28T01:57:50.460Z,13.41
2022-08-28T02:00:18.063Z,13.34
2022-08-28T02:02:44.548Z,13.32
2022-08-28T02:05:11.747Z,13.33
2022-08-28T02:07:38.884Z,13.32
2022-08-28T02:10:11.954Z,13.28
2022-08-28T02:12:38.891Z,13.29
2022-08-28T02:15:07.498Z,13.28
2022-08-28T02:17:34.619Z,13.30
2022-08-28T02:20:01.127Z,13.29
2022-08-28T02:22:27.731Z,13.25
2022-08-28T02:24:54.351Z,13.25
2022-08-28T02:27:20.919Z,13.25
2022-08-28T02:29:47.587Z,13.24
2022-08-28T02:32:14.163Z,13.25
2022-08-28T02:34:42.184Z,13.24
2022-08-28T02:37:10.027Z,13.24
2022-08-28T02:39:37.054Z,13.27
2022-08-28T02:42:03.773Z,13.24
2022-08-28T02:44:30.563Z,13.20
2022-08-28T02:46:57.341Z,13.18
2022-08-28T02:49:24.112Z,13.20
2022-08-28T02:51:51.191Z,13.17
2022-08-28T02:54:18.487Z,13.17
2022-08-28T02:56:45.406Z,13.19
2022-08-28T02:59:13.459Z,13.19
2022-08-28T03:01:40.093Z,13.20
2022-08-28T03:04:07.102Z,13.15
2022-08-28T03:06:33.863Z,13.14
2022-08-28T03:09:00.425Z,13.10
2022-08-28T03:11:27.661Z,13.10
2022-08-28T03:13:55.463Z,13.05
2022-08-28T03:16:22.089Z,13.08
2022-08-28T03:18:48.630Z,13.07
2022-08-28T03:21:15.105Z,13.06
2022-08-28T03:23:41.727Z,12.99
2022-08-28T03:26:11.464Z,13.04
2022-08-28T03:28:45.379Z,13.02
2022-08-28T03:31:16.252Z,13.02
2022-08-28T03:33:43.186Z,13.03
2022-08-28T03:36:11.733Z,13.08
2022-08-28T03:38:39.638Z,13.13
2022-08-28T03:41:14.995Z,13.11
2022-08-28T03:43:42.610Z,13.19
2022-08-28T03:46:14.345Z,13.23
2022-08-28T03:48:41.048Z,13.27
2022-08-28T03:51:14.713Z,13.33
2022-08-28T03:53:42.532Z,13.38
2022-08-28T03:56:16.181Z,13.41
2022-08-28T03:58:43.399Z,13.45
2022-08-28T04:01:10.199Z,13.42
2022-08-28T04:03:37.284Z,13.43
2022-08-28T04:06:04.094Z,13.42
2022-08-28T04:08:30.735Z,13.43
2022-08-28T04:10:59.401Z,13.44
2022-08-28T04:13:26.371Z,13.45
2022-08-28T04:16:02.510Z,13.50
2022-08-28T04:18:32.894Z,13.54
2022-08-28T04:21:07.949Z,13.57
2022-08-28T04:23:39.399Z,13.55
2022-08-28T04:26:10.060Z,13.56
2022-08-28T04:28:37.218Z,13.50
2022-08-28T04:31:04.522Z,13.47
2022-08-28T04:33:31.788Z,13.42
2022-08-28T04:36:02.748Z,13.41
2022-08-28T04:38:29.691Z,13.42
2022-08-28T04:40:56.149Z,13.48
2022-08-28T04:43:25.410Z,13.53
2022-08-28T04:45:52.103Z,13.59
2022-08-28T04:48:19.057Z,13.61
2022-08-28T04:50:48.340Z,13.65
2022-08-28T04:53:19.314Z,13.73
2022-08-28T04:55:54.062Z,13.73
2022-08-28T04:58:23.833Z,13.86
2022-08-28T05:00:52.089Z,13.93
2022-08-28T05:03:18.860Z,14.00
2022-08-28T05:05:48.340Z,14.04
2022-08-28T05:08:17.083Z,14.22
2022-08-28T05:10:44.307Z,14.32
2022-08-28T05:13:11.975Z,14.46
2022-08-28T05:15:40.228Z,14.60
2022-08-28T05:18:07.539Z,14.69
2022-08-28T05:20:42.882Z,14.82
2022-08-28T05:23:10.108Z,14.98
2022-08-28T05:25:39.515Z,15.09
2022-08-28T05:28:11.935Z,15.15
2022-08-28T05:30:40.676Z,15.23
2022-08-28T05:33:08.554Z,15.27
2022-08-28T05:35:41.447Z,15.27
2022-08-28T05:38:08.940Z,15.31
2022-08-28T05:40:42.705Z,15.36
2022-08-28T05:43:10.221Z,15.36
2022-08-28T05:45:36.857Z,15.55
2022-08-28T05:48:03.653Z,15.62
2022-08-28T05:50:31.309Z,15.80
2022-08-28T05:52:57.864Z,16.25
2022-08-28T05:55:24.400Z,16.42
2022-08-28T05:57:50.885Z,16.39
2022-08-28T06:00:18.423Z,16.61
2022-08-28T06:02:45.067Z,16.46
2022-08-28T06:05:12.615Z,16.35
2022-08-28T06:07:41.078Z,16.19
2022-08-28T06:10:10.578Z,16.14
2022-08-28T06:12:37.838Z,16.10
2022-08-28T06:15:05.588Z,16.11
2022-08-28T06:17:32.140Z,16.14
2022-08-28T06:19:58.659Z,16.16
2022-08-28T06:22:25.803Z,16.08
2022-08-28T06:24:52.328Z,16.06
2022-08-28T06:27:18.894Z,16.14
2022-08-28T06:29:45.855Z,16.12
2022-08-28T06:32:12.413Z,16.12
2022-08-28T06:34:39.399Z,16.16
2022-08-28T06:37:06.006Z,16.33
2022-08-28T06:39:32.552Z,16.45
2022-08-28T06:41:59.147Z,16.56
2022-08-28T06:44:25.934Z,16.96
2022-08-28T06:46:54.732Z,17.82
2022-08-28T06:49:21.924Z,17.68
2022-08-28T06:51:48.754Z,17.54
2022-08-28T06:54:21.755Z,17.28
2022-08-28T06:56:50.790Z,17.89
2022-08-28T06:59:17.343Z,17.87
2022-08-28T07:01:43.876Z,18.40
2022-08-28T07:04:12.272Z,18.38
2022-08-28T07:06:41.416Z,18.45
2022-08-28T07:09:11.113Z,17.92
2022-08-28T07:11:38.588Z,18.01
2022-08-28T07:14:06.011Z,18.43
2022-08-28T07:16:38.582Z,18.82
2022-08-28T07:19:06.992Z,18.96
2022-08-28T07:21:38.813Z,18.94
2022-08-28T07:24:07.117Z,19.37
2022-08-28T07:26:34.149Z,19.50
2022-08-28T07:29:10.184Z,19.68
2022-08-28T07:31:40.077Z,19.77
2022-08-28T07:34:06.658Z,19.86
2022-08-28T07:36:33.183Z,19.61
2022-08-28T07:39:00.001Z,19.75
2022-08-28T07:41:32.397Z,19.90
2022-08-28T07:44:17.744Z,20.03
2022-08-28T07:46:45.607Z,20.06
2022-08-28T07:49:13.269Z,20.17
2022-08-28T07:51:39.784Z,20.27
2022-08-28T07:54:06.388Z,20.37
2022-08-28T07:56:40.872Z,20.32
2022-08-28T07:59:09.519Z,19.89
2022-08-28T08:01:43.127Z,20.05
2022-08-28T08:04:12.722Z,20.36
2022-08-28T08:06:41.129Z,20.76
2022-08-28T08:09:10.584Z,20.94
2022-08-28T08:11:37.426Z,21.06
2022-08-28T08:14:06.031Z,20.91
2022-08-28T08:16:34.704Z,20.48
2022-08-28T08:19:01.880Z,20.09
2022-08-28T08:21:30.559Z,20.16
2022-08-28T08:23:58.033Z,19.36
2022-08-28T08:26:28.291Z,19.72
2022-08-28T08:28:56.349Z,20.05
2022-08-28T08:31:35.244Z,20.55
2022-08-28T08:34:04.727Z,20.68
2022-08-28T08:36:34.083Z,20.71
2022-08-28T08:39:01.188Z,21.09
2022-08-28T08:41:49.908Z,20.89
2022-08-28T08:44:16.356Z,21.19
2022-08-28T08:46:56.161Z,21.52
2022-08-28T08:49:29.471Z,21.42
2022-08-28T08:52:14.023Z,21.35
2022-08-28T08:54:42.374Z,20.90
2022-08-28T08:57:14.732Z,20.76
2022-08-28T08:59:42.184Z,20.55
2022-08-28T09:02:31.621Z,20.29
2022-08-28T09:05:10.145Z,19.86
2022-08-28T09:07:38.304Z,19.28
2022-08-28T09:10:08.086Z,19.95
2022-08-28T09:12:51.271Z,20.48
2022-08-28T09:15:28.117Z,20.80
2022-08-28T09:18:10.540Z,20.80
2022-08-28T09:20:37.166Z,20.94
2022-08-28T09:23:12.695Z,21.04
2022-08-28T09:26:01.631Z,21.01
2022-08-28T09:28:41.817Z,21.47
2022-08-28T09:31:13.766Z,21.41
2022-08-28T09:33:46.816Z,21.00
2022-08-28T09:36:33.071Z,20.42
2022-08-28T09:39:07.879Z,20.87
2022-08-28T09:42:02.730Z,20.70
2022-08-28T09:44:30.039Z,20.92
2022-08-28T09:46:56.732Z,21.14
2022-08-28T09:49:28.107Z,20.78
2022-08-28T09:51:56.267Z,20.41
2022-08-28T09:54:31.212Z,20.14
2022-08-28T09:56:57.813Z,20.79
2022-08-28T09:59:27.785Z,21.13
2022-08-28T10:02:22.435Z,20.68
2022-08-28T10:04:59.136Z,20.87
2022-08-28T10:07:50.534Z,21.21
2022-08-28T10:10:39.871Z,21.52
2022-08-28T10:13:17.920Z,21.67
2022-08-28T10:15:56.412Z,20.76
2022-08-28T10:18:53.068Z,21.00
2022-08-28T10:21:28.071Z,21.23
2022-08-28T10:24:27.685Z,21.40
2022-08-28T10:27:10.200Z,21.02
2022-08-28T10:29:48.140Z,20.90
2022-08-28T10:32:20.779Z,21.07
2022-08-28T10:34:55.095Z,21.24
2022-08-28T10:37:55.272Z,21.38
2022-08-28T10:40:30.775Z,20.85
2022-08-28T10:43:03.977Z,21.24
2022-08-28T10:45:32.865Z,21.65
2022-08-28T10:48:21.491Z,21.65
2022-08-28T10:50:56.031Z,21.73
2022-08-28T10:53:35.387Z,21.86
2022-08-28T10:56:08.700Z,22.16
2022-08-28T10:58:38.401Z,22.30
2022-08-28T11:01:14.161Z,21.82
2022-08-28T11:03:51.302Z,21.50
2022-08-28T11:06:17.759Z,21.72
2022-08-28T11:08:53.334Z,21.59
2022-08-28T11:11:48.705Z,21.80
2022-08-28T11:14:27.116Z,21.92
2022-08-28T11:17:04.518Z,22.07
2022-08-28T11:19:35.479Z,22.09
2022-08-28T11:22:23.676Z,21.65
2022-08-28T11:25:09.404Z,21.89
2022-08-28T11:27:37.823Z,21.86
2022-08-28T11:30:16.549Z,21.60
2022-08-28T11:32:51.991Z,21.85
2022-08-28T11:35:30.651Z,21.82
2022-08-28T11:37:58.501Z,21.88
2022-08-28T11:40:28.049Z,21.80
2022-08-28T11:43:14.163Z,21.64
2022-08-28T11:45:45.840Z,21.78
2022-08-28T11:48:22.709Z,22.00
2022-08-28T11:51:06.346Z,21.78
2022-08-28T11:53:54.744Z,21.76
2022-08-28T11:56:53.277Z,21.69
2022-08-28T11:59:47.394Z,21.69
2022-08-28T12:02:43.695Z,21.61
2022-08-28T12:05:32.252Z,21.75
2022-08-28T12:08:04.994Z,21.71
2022-08-28T12:10:31.645Z,21.61
2022-08-28T12:13:03.919Z,21.66
2022-08-28T12:15:31.083Z,21.63
2022-08-28T12:18:01.359Z,21.65
2022-08-28T12:20:37.713Z,21.55
2022-08-28T12:23:23.075Z,21.65
2022-08-28T12:25:58.683Z,21.51
2022-08-28T12:28:38.439Z,21.50
2022-08-28T12:31:04.942Z,21.49
2022-08-28T12:33:48.624Z,21.55
2022-08-28T12:36:18.571Z,21.65
2022-08-28T12:38:51.155Z,21.48
2022-08-28T12:41:18.510Z,21.41
2022-08-28T12:43:50.583Z,21.23
2022-08-28T12:46:23.662Z,21.47
2022-08-28T12:48:51.890Z,21.63
2022-08-28T12:51:24.619Z,21.75
2022-08-28T12:53:59.461Z,21.53
2022-08-28T12:56:30.140Z,21.54
2022-08-28T12:58:56.840Z,21.37
2022-08-28T13:01:32.447Z,21.43
2022-08-28T13:04:02.941Z,21.56
2022-08-28T13:06:33.856Z,21.84
2022-08-28T13:09:06.811Z,21.56
2022-08-28T13:11:37.852Z,21.60
2022-08-28T13:14:05.662Z,21.52
2022-08-28T13:16:46.489Z,21.70
2022-08-28T13:19:30.662Z,21.74
2022-08-28T13:22:02.650Z,21.73
2022-08-28T13:24:35.263Z,21.68
2022-08-28T13:27:01.760Z,21.55
2022-08-28T13:29:28.961Z,21.74
2022-08-28T13:31:59.417Z,21.65
2022-08-28T13:34:29.406Z,21.55
2022-08-28T13:36:59.919Z,21.60
2022-08-28T13:39:29.273Z,21.71
2022-08-28T13:42:00.567Z,21.58
2022-08-28T13:44:26.996Z,21.59
2022-08-28T13:46:53.777Z,21.52
2022-08-28T13:49:21.325Z,21.30
2022-08-28T13:51:47.890Z,21.46
2022-08-28T13:54:15.026Z,21.30
2022-08-28T13:56:42.919Z,21.26
2022-08-28T13:59:09.447Z,21.02
2022-08-28T14:01:54.783Z,21.18
2022-08-28T14:04:21.383Z,21.22
2022-08-28T14:06:48.087Z,21.34
2022-08-28T14:09:15.420Z,21.30
2022-08-28T14:11:46.306Z,21.14
2022-08-28T14:14:12.832Z,21.25
2022-08-28T14:16:40.305Z,21.26
2022-08-28T14:19:07.129Z,21.35
2022-08-28T14:21:36.143Z,21.36
2022-08-28T14:24:03.103Z,21.38
2022-08-28T14:26:30.392Z,21.39
2022-08-28T14:29:01.288Z,21.25
2022-08-28T14:31:29.412Z,21.38
2022-08-28T14:33:59.781Z,21.16
2022-08-28T14:36:28.924Z,21.19
2022-08-28T14:38:57.718Z,21.18
2022-08-28T14:41:25.359Z,21.01
2022-08-28T14:43:53.744Z,20.80
2022-08-28T14:46:30.577Z,20.75
2022-08-28T14:49:04.127Z,20.95
2022-08-28T14:51:32.240Z,21.02
2022-08-28T14:54:00.582Z,20.83
2022-08-28T15:34:37.956Z,20.47
2022-08-28T15:37:07.880Z,20.47
2022-08-28T15:39:53.176Z,20.45
2022-08-28T15:42:19.650Z,20.39
2022-08-28T15:44:46.159Z,20.56
2022-08-28T15:47:14.777Z,20.27
2022-08-28T15:49:44.671Z,20.23
2022-08-28T15:52:15.646Z,20.40
2022-08-28T15:54:42.730Z,20.21
2022-08-28T15:57:09.224Z,20.16
2022-08-28T15:59:47.918Z,20.27
2022-08-28T16:02:16.472Z,20.23
2022-08-28T16:04:43.159Z,20.38
2022-08-28T16:07:09.685Z,20.27
2022-08-28T16:09:36.243Z,20.25
2022-08-28T16:12:02.956Z,20.23
2022-08-28T16:14:32.769Z,20.27
2022-08-28T16:16:59.617Z,20.20
2022-08-28T16:19:32.793Z,20.20
2022-08-28T16:21:59.458Z,20.08
2022-08-28T16:24:26.165Z,19.93
2022-08-28T16:26:52.667Z,19.94
2022-08-28T16:29:19.227Z,19.88
2022-08-28T16:31:47.978Z,19.80
2022-08-28T16:34:15.593Z,19.86
2022-08-28T16:36:48.274Z,19.86
2022-08-28T16:39:15.170Z,19.89
2022-08-28T16:41:43.179Z,19.93
2022-08-28T16:44:09.732Z,19.68
2022-08-28T16:46:36.308Z,19.75
2022-08-28T16:49:03.615Z,19.72
2022-08-28T16:51:30.250Z,19.77
2022-08-28T16:53:57.122Z,19.66
2022-08-28T16:56:24.146Z,19.57
2022-08-28T16:58:53.116Z,19.42
2022-08-28T17:01:24.053Z,19.38
2022-08-28T17:03:57.305Z,19.48
2022-08-28T17:06:27.289Z,19.37
2022-08-28T17:08:56.850Z,19.25
2022-08-28T17:11:26.168Z,19.36
2022-08-28T17:13:53.189Z,19.20
2022-08-28T17:16:21.412Z,19.19
2022-08-28T17:18:52.452Z,19.16
2022-08-28T17:21:39.350Z,19.05
2022-08-28T17:24:06.801Z,19.02
2022-08-28T17:26:33.508Z,18.95
2022-08-28T17:29:00.076Z,18.83
2022-08-28T17:31:26.662Z,18.76
2022-08-28T17:33:53.323Z,18.83
2022-08-28T17:36:30.749Z,18.72
2022-08-28T17:39:01.661Z,18.65
2022-08-28T17:41:28.267Z,18.77
2022-08-28T17:43:54.799Z,18.45
2022-08-28T17:46:21.436Z,18.59
2022-08-28T17:48:55.848Z,18.41
2022-08-28T17:51:33.106Z,18.50
2022-08-28T17:54:10.814Z,18.46
2022-08-28T17:56:37.380Z,18.32
2022-08-28T17:59:04.789Z,18.29
2022-08-28T18:01:31.378Z,18.41
2022-08-28T18:03:58.059Z,18.35
2022-08-28T18:06:25.025Z,18.30
2022-08-28T18:08:51.943Z,18.34
2022-08-28T18:11:19.179Z,18.29
2022-08-28T18:13:46.304Z,18.17
2022-08-28T18:16:13.118Z,18.17
2022-08-28T18:18:40.541Z,18.04
2022-08-28T18:21:08.762Z,17.89
2022-08-28T18:23:35.384Z,17.94
2022-08-28T18:26:02.060Z,17.94
2022-08-28T18:28:28.780Z,17.81
2022-08-28T18:30:55.521Z,17.86
2022-08-28T18:33:24.246Z,17.57
2022-08-28T18:35:52.364Z,17.70
2022-08-28T18:38:21.861Z,17.62
2022-08-28T18:40:49.329Z,17.59
2022-08-28T18:43:17.744Z,17.64
2022-08-28T18:45:44.308Z,17.63
2022-08-28T18:48:11.022Z,17.57
2022-08-28T18:50:37.992Z,17.62
2022-08-28T18:53:05.209Z,17.67
2022-08-28T18:55:32.894Z,17.70
2022-08-28T18:58:01.619Z,17.70
2022-08-28T19:00:28.815Z,17.67
2022-08-28T19:02:55.578Z,17.60
2022-08-28T19:05:22.362Z,17.61
2022-08-28T19:07:49.909Z,17.55
2022-08-28T19:10:32.894Z,17.54
2022-08-28T19:13:01.091Z,17.50
2022-08-28T19:15:28.290Z,17.53
2022-08-28T19:17:55.319Z,17.47
2022-08-28T19:20:22.083Z,17.51
2022-08-28T19:22:48.953Z,17.45
2022-08-28T19:25:27.619Z,17.44
2022-08-28T19:27:58.989Z,17.37
2022-08-28T19:30:28.521Z,17.30
2022-08-28T19:32:55.217Z,17.38
2022-08-28T19:35:24.479Z,17.51
2022-08-28T19:37:52.043Z,17.46
2022-08-28T19:40:19.393Z,17.42
2022-08-28T19:42:46.046Z,17.51
2022-08-28T19:45:14.234Z,17.46
2022-08-28T19:47:41.122Z,17.43
2022-08-28T19:50:09.163Z,17.43
2022-08-28T19:52:36.534Z,17.47
2022-08-28T19:55:05.600Z,17.42
2022-08-28T19:57:32.860Z,17.30
2022-08-28T20:00:00.103Z,17.47
2022-08-28T20:02:27.344Z,17.37
2022-08-28T20:04:54.493Z,17.34
2022-08-28T20:07:21.306Z,17.31
2022-08-28T20:09:47.876Z,17.27
2022-08-28T20:12:14.712Z,17.15
2022-08-28T20:14:42.562Z,17.04
2022-08-28T20:17:09.312Z,16.93
2022-08-28T20:19:35.963Z,16.90
2022-08-28T20:22:03.866Z,16.88
2022-08-28T20:24:30.491Z,16.75
2022-08-28T20:26:57.175Z,16.79
2022-08-28T20:29:24.269Z,16.73
2022-08-28T20:31:51.733Z,16.70
2022-08-28T20:34:19.961Z,16.61
2022-08-28T20:36:47.316Z,16.49
2022-08-28T20:39:14.812Z,16.49
2022-08-28T20:41:42.096Z,16.40
2022-08-28T20:44:12.648Z,16.42
2022-08-28T20:46:42.111Z,16.31
2022-08-28T20:49:10.903Z,16.30
2022-08-28T20:51:53.308Z,16.26
2022-08-28T20:54:21.756Z,16.22
2022-08-28T20:56:49.360Z,16.09
2022-08-28T20:59:15.923Z,16.09
2022-08-28T21:01:42.495Z,16.15
2022-08-28T21:04:09.268Z,16.13
2022-08-28T21:06:35.843Z,16.04
2022-08-28T21:09:02.534Z,16.05
2022-08-28T21:11:29.491Z,16.17
2022-08-28T21:13:56.136Z,16.13
2022-08-28T21:16:22.790Z,16.24
2022-08-28T21:19:12.116Z,16.21
2022-08-28T21:21:37.055Z,16.22
2022-08-28T21:24:06.700Z,16.27
2022-08-28T21:26:33.637Z,16.20
2022-08-28T21:29:00.807Z,16.17
2022-08-28T21:31:27.463Z,16.24
2022-08-28T21:33:54.067Z,16.22
2022-08-28T21:36:20.636Z,16.30
2022-08-28T21:38:47.352Z,16.27
2022-08-28T21:41:15.041Z,16.29
2022-08-28T21:43:44.007Z,16.29
2022-08-28T21:46:12.579Z,16.13
2022-08-28T21:48:40.240Z,16.27
2022-08-28T21:51:12.937Z,16.26
2022-08-28T21:53:40.747Z,16.25
2022-08-28T21:56:08.599Z,16.21
2022-08-28T21:58:36.165Z,16.22
2022-08-28T22:01:02.783Z,16.19
2022-08-28T22:03:29.424Z,16.03
2022-08-28T22:05:57.281Z,16.11
2022-08-28T22:08:27.267Z,16.02
2022-08-28T22:10:55.019Z,16.08
2022-08-28T22:13:21.579Z,15.99
2022-08-28T22:15:48.442Z,16.02
2022-08-28T22:18:16.171Z,16.01
2022-08-28T22:21:10.132Z,16.01
2022-08-28T22:23:37.245Z,16.00
2022-08-28T22:26:10.419Z,15.95
2022-08-28T22:28:37.760Z,15.82
2022-08-28T22:31:04.631Z,15.89
2022-08-28T22:33:33.002Z,15.87
2022-08-28T22:35:59.504Z,15.82
2022-08-28T22:38:26.789Z,15.69
2022-08-28T22:40:53.483Z,15.66
2022-08-28T22:43:20.286Z,15.52
2022-08-28T22:45:47.465Z,15.55
2022-08-28T22:48:16.178Z,15.49
2022-08-28T22:50:43.893Z,15.41
2022-08-28T22:53:10.641Z,15.40
2022-08-28T22:55:41.424Z,15.36
2022-08-28T22:58:10.881Z,15.48
2022-08-28T23:00:40.143Z,15.46
2022-08-28T23:03:06.805Z,15.42
2022-08-28T23:05:33.899Z,15.37
2022-08-28T23:08:00.433Z,15.21
2022-08-28T23:10:42.388Z,15.18
2022-08-28T23:13:15.170Z,15.06
2022-08-28T23:15:43.508Z,15.18
2022-08-28T23:18:10.941Z,15.14
2022-08-28T23:20:37.593Z,15.07
2022-08-28T23:23:04.135Z,15.06
2022-08-28T23:25:30.637Z,15.11
2022-08-28T23:27:57.340Z,15.14
2022-08-28T23:30:24.298Z,15.15
2022-08-28T23:32:51.981Z,15.12
2022-08-28T23:35:19.714Z,15.10
2022-08-28T23:37:51.868Z,15.18
2022-08-28T23:40:24.032Z,15.10
2022-08-28T23:42:52.355Z,15.14
2022-08-28T23:45:20.144Z,15.14
2022-08-28T23:47:47.338Z,15.08
2022-08-28T23:50:18.261Z,14.94
2022-08-28T23:52:45.250Z,14.98
2022-08-28T23:55:13.789Z,14.94
2022-08-28T23:57:40.538Z,14.86
